sensor_id;sensor_type;location;lat;lon;timestamp;temperature;humidity
20712;DHT22;10517;50.742;4.224;2023-07-30T00:02:17;16.90;99.90
20712;DHT22;10517;50.742;4.224;2023-07-30T00:04:43;16.80;99.90
20712;DHT22;10517;50.742;4.224;2023-07-30T00:07:09;16.80;99.90
20712;DHT22;10517;50.742;4.224;2023-07-30T00:09:34;16.80;99.90
20712;DHT22;10517;50.742;4.224;2023-07-30T00:12:00;16.90;99.90
20712;DHT22;10517;50.742;4.224;2023-07-30T00:14:27;17.00;99.90
20712;DHT22;10517;50.742;4.224;2023-07-30T00:16:53;17.10;99.90
20712;DHT22;10517;50.742;4.224;2023-07-30T00:19:18;17.10;99.90
20712;DHT22;10517;50.742;4.224;2023-07-30T00:21:44;17.20;99.90
20712;DHT22;10517;50.742;4.224;2023-07-30T00:24:12;17.20;99.90
20712;DHT22;10517;50.742;4.224;2023-07-30T00:26:38;17.30;99.90
20712;DHT22;10517;50.742;4.224;2023-07-30T00:29:04;17.30;99.90
20712;DHT22;10517;50.742;4.224;2023-07-30T00:31:29;17.30;99.90
20712;DHT22;10517;50.742;4.224;2023-07-30T00:33:55;17.30;99.90
20712;DHT22;10517;50.742;4.224;2023-07-30T00:36:21;17.50;99.90
20712;DHT22;10517;50.742;4.224;2023-07-30T00:38:46;17.50;99.90
20712;DHT22;10517;50.742;4.224;2023-07-30T00:41:12;17.60;99.90
20712;DHT22;10517;50.742;4.224;2023-07-30T00:43:37;17.60;99.90
20712;DHT22;10517;50.742;4.224;2023-07-30T00:46:03;17.60;99.90
20712;DHT22;10517;50.742;4.224;2023-07-30T00:48:29;17.70;99.90
20712;DHT22;10517;50.742;4.224;2023-07-30T00:50:55;17.80;99.90
20712;DHT22;10517;50.742;4.224;2023-07-30T00:53:22;17.70;99.90
20712;DHT22;10517;50.742;4.224;2023-07-30T00:55:49;17.70;99.90
20712;DHT22;10517;50.742;4.224;2023-07-30T00:58:15;17.80;99.90
20712;DHT22;10517;50.742;4.224;2023-07-30T01:00:41;17.80;99.90
20712;DHT22;10517;50.742;4.224;2023-07-30T01:03:07;17.90;99.90
20712;DHT22;10517;50.742;4.224;2023-07-30T01:05:33;18.00;99.90
20712;DHT22;10517;50.742;4.224;2023-07-30T01:07:59;18.00;99.90
20712;DHT22;10517;50.742;4.224;2023-07-30T01:10:25;17.90;99.90
20712;DHT22;10517;50.742;4.224;2023-07-30T01:12:51;17.90;99.90
20712;DHT22;10517;50.742;4.224;2023-07-30T01:15:17;18.00;99.90
20712;DHT22;10517;50.742;4.224;2023-07-30T01:17:43;18.00;99.90
20712;DHT22;10517;50.742;4.224;2023-07-30T01:20:09;18.00;99.90
20712;DHT22;10517;50.742;4.224;2023-07-30T01:22:35;18.00;99.90
20712;DHT22;10517;50.742;4.224;2023-07-30T01:25:01;18.00;99.90
20712;DHT22;10517;50.742;4.224;2023-07-30T01:27:33;18.00;99.90
20712;DHT22;10517;50.742;4.224;2023-07-30T01:30:08;17.90;99.90
20712;DHT22;10517;50.742;4.224;2023-07-30T01:32:37;18.00;99.90
20712;DHT22;10517;50.742;4.224;2023-07-30T01:35:04;17.90;99.90
20712;DHT22;10517;50.742;4.224;2023-07-30T01:37:32;17.90;99.90
20712;DHT22;10517;50.742;4.224;2023-07-30T01:40:00;18.00;99.90
20712;DHT22;10517;50.742;4.224;2023-07-30T01:42:29;18.00;99.90
20712;DHT22;10517;50.742;4.224;2023-07-30T01:44:55;18.00;99.90
20712;DHT22;10517;50.742;4.224;2023-07-30T01:47:20;18.00;99.90
20712;DHT22;10517;50.742;4.224;2023-07-30T01:49:46;18.00;99.90
20712;DHT22;10517;50.742;4.224;2023-07-30T01:52:12;18.00;99.90
20712;DHT22;10517;50.742;4.224;2023-07-30T01:54:37;18.00;99.90
20712;DHT22;10517;50.742;4.224;2023-07-30T01:57:03;18.00;99.90
20712;DHT22;10517;50.742;4.224;2023-07-30T01:59:29;18.00;99.90
20712;DHT22;10517;50.742;4.224;2023-07-30T02:01:54;17.90;99.90
20712;DHT22;10517;50.742;4.224;2023-07-30T02:04:20;17.90;99.90
20712;DHT22;10517;50.742;4.224;2023-07-30T02:06:45;17.80;99.90
20712;DHT22;10517;50.742;4.224;2023-07-30T02:09:11;17.80;99.90
20712;DHT22;10517;50.742;4.224;2023-07-30T02:11:37;17.80;99.90
20712;DHT22;10517;50.742;4.224;2023-07-30T02:14:02;17.80;99.90
20712;DHT22;10517;50.742;4.224;2023-07-30T02:16:28;17.80;99.90
20712;DHT22;10517;50.742;4.224;2023-07-30T02:18:53;17.80;99.90
20712;DHT22;10517;50.742;4.224;2023-07-30T02:21:19;17.70;99.90
20712;DHT22;10517;50.742;4.224;2023-07-30T02:23:44;17.60;99.90
20712;DHT22;10517;50.742;4.224;2023-07-30T02:26:10;17.50;99.90
20712;DHT22;10517;50.742;4.224;2023-07-30T02:28:36;17.50;99.90
20712;DHT22;10517;50.742;4.224;2023-07-30T02:31:01;17.40;99.90
20712;DHT22;10517;50.742;4.224;2023-07-30T02:33:27;17.40;99.90
20712;DHT22;10517;50.742;4.224;2023-07-30T02:35:52;17.50;99.90
20712;DHT22;10517;50.742;4.224;2023-07-30T02:38:18;17.40;99.90
20712;DHT22;10517;50.742;4.224;2023-07-30T02:40:43;17.50;99.90
20712;DHT22;10517;50.742;4.224;2023-07-30T02:43:09;17.50;99.90
20712;DHT22;10517;50.742;4.224;2023-07-30T02:45:34;17.50;99.90
20712;DHT22;10517;50.742;4.224;2023-07-30T02:48:00;17.40;99.90
20712;DHT22;10517;50.742;4.224;2023-07-30T02:50:25;17.50;99.90
20712;DHT22;10517;50.742;4.224;2023-07-30T02:52:51;17.50;99.90
20712;DHT22;10517;50.742;4.224;2023-07-30T02:55:16;17.50;99.90
20712;DHT22;10517;50.742;4.224;2023-07-30T02:57:42;17.50;99.90
20712;DHT22;10517;50.742;4.224;2023-07-30T03:00:08;17.50;99.90
20712;DHT22;10517;50.742;4.224;2023-07-30T03:02:34;17.40;99.90
20712;DHT22;10517;50.742;4.224;2023-07-30T03:04:59;17.40;99.90
20712;DHT22;10517;50.742;4.224;2023-07-30T03:07:25;17.40;99.90
20712;DHT22;10517;50.742;4.224;2023-07-30T03:09:51;17.30;99.90
20712;DHT22;10517;50.742;4.224;2023-07-30T03:12:16;17.30;99.90
20712;DHT22;10517;50.742;4.224;2023-07-30T03:14:42;17.30;99.90
20712;DHT22;10517;50.742;4.224;2023-07-30T03:17:07;17.30;99.90
20712;DHT22;10517;50.742;4.224;2023-07-30T03:19:33;17.20;99.90
20712;DHT22;10517;50.742;4.224;2023-07-30T03:21:58;17.10;99.90
20712;DHT22;10517;50.742;4.224;2023-07-30T03:24:24;17.00;99.90
20712;DHT22;10517;50.742;4.224;2023-07-30T03:26:50;17.00;99.90
20712;DHT22;10517;50.742;4.224;2023-07-30T03:29:16;16.90;99.90
20712;DHT22;10517;50.742;4.224;2023-07-30T03:31:41;16.80;99.90
20712;DHT22;10517;50.742;4.224;2023-07-30T03:34:07;16.80;99.90
20712;DHT22;10517;50.742;4.224;2023-07-30T03:36:33;16.80;99.90
20712;DHT22;10517;50.742;4.224;2023-07-30T03:38:58;16.60;99.90
20712;DHT22;10517;50.742;4.224;2023-07-30T03:41:24;16.60;99.90
20712;DHT22;10517;50.742;4.224;2023-07-30T03:43:50;16.60;99.90
20712;DHT22;10517;50.742;4.224;2023-07-30T03:46:16;16.50;99.90
20712;DHT22;10517;50.742;4.224;2023-07-30T03:48:41;16.50;99.90
20712;DHT22;10517;50.742;4.224;2023-07-30T03:51:07;16.40;99.90
20712;DHT22;10517;50.742;4.224;2023-07-30T03:53:33;16.40;99.90
20712;DHT22;10517;50.742;4.224;2023-07-30T03:55:59;16.40;99.90
20712;DHT22;10517;50.742;4.224;2023-07-30T03:58:24;16.30;99.90
20712;DHT22;10517;50.742;4.224;2023-07-30T04:00:50;16.30;99.90
20712;DHT22;10517;50.742;4.224;2023-07-30T04:03:15;16.30;99.90
20712;DHT22;10517;50.742;4.224;2023-07-30T04:05:41;16.30;99.90
20712;DHT22;10517;50.742;4.224;2023-07-30T04:08:06;16.30;99.90
20712;DHT22;10517;50.742;4.224;2023-07-30T04:10:32;16.30;99.90
20712;DHT22;10517;50.742;4.224;2023-07-30T04:12:58;16.30;99.90
20712;DHT22;10517;50.742;4.224;2023-07-30T04:15:23;16.30;99.90
20712;DHT22;10517;50.742;4.224;2023-07-30T04:17:49;16.30;99.90
20712;DHT22;10517;50.742;4.224;2023-07-30T04:20:14;16.20;99.90
20712;DHT22;10517;50.742;4.224;2023-07-30T04:22:40;16.20;99.90
20712;DHT22;10517;50.742;4.224;2023-07-30T04:25:07;16.20;99.90
20712;DHT22;10517;50.742;4.224;2023-07-30T04:27:33;16.20;99.90
20712;DHT22;10517;50.742;4.224;2023-07-30T04:29:58;16.20;99.90
20712;DHT22;10517;50.742;4.224;2023-07-30T04:32:24;16.10;99.90
20712;DHT22;10517;50.742;4.224;2023-07-30T04:34:50;16.20;99.90
20712;DHT22;10517;50.742;4.224;2023-07-30T04:37:15;16.20;99.90
20712;DHT22;10517;50.742;4.224;2023-07-30T04:39:41;16.20;99.90
20712;DHT22;10517;50.742;4.224;2023-07-30T04:42:06;16.30;99.90
20712;DHT22;10517;50.742;4.224;2023-07-30T04:44:32;16.30;99.90
20712;DHT22;10517;50.742;4.224;2023-07-30T04:46:58;16.20;99.90
20712;DHT22;10517;50.742;4.224;2023-07-30T04:49:23;16.30;99.90
20712;DHT22;10517;50.742;4.224;2023-07-30T04:51:49;16.30;99.90
20712;DHT22;10517;50.742;4.224;2023-07-30T04:54:15;16.40;99.90
20712;DHT22;10517;50.742;4.224;2023-07-30T04:56:40;16.40;99.90
20712;DHT22;10517;50.742;4.224;2023-07-30T04:59:06;16.50;99.90
20712;DHT22;10517;50.742;4.224;2023-07-30T05:01:32;16.50;99.90
20712;DHT22;10517;50.742;4.224;2023-07-30T05:03:58;16.60;99.90
20712;DHT22;10517;50.742;4.224;2023-07-30T05:06:23;16.60;99.90
20712;DHT22;10517;50.742;4.224;2023-07-30T05:08:49;16.60;99.90
20712;DHT22;10517;50.742;4.224;2023-07-30T05:11:14;16.70;99.90
20712;DHT22;10517;50.742;4.224;2023-07-30T05:13:40;16.70;99.90
20712;DHT22;10517;50.742;4.224;2023-07-30T05:16:06;16.80;99.90
20712;DHT22;10517;50.742;4.224;2023-07-30T05:18:31;16.90;99.90
20712;DHT22;10517;50.742;4.224;2023-07-30T05:20:57;16.90;99.90
20712;DHT22;10517;50.742;4.224;2023-07-30T05:23:22;17.00;99.90
20712;DHT22;10517;50.742;4.224;2023-07-30T05:25:48;17.00;99.90
20712;DHT22;10517;50.742;4.224;2023-07-30T05:28:14;17.10;99.90
20712;DHT22;10517;50.742;4.224;2023-07-30T05:30:39;17.10;99.90
20712;DHT22;10517;50.742;4.224;2023-07-30T05:33:05;17.10;99.90
20712;DHT22;10517;50.742;4.224;2023-07-30T05:35:30;17.20;99.90
20712;DHT22;10517;50.742;4.224;2023-07-30T05:37:56;17.30;99.90
20712;DHT22;10517;50.742;4.224;2023-07-30T05:40:22;17.30;99.90
20712;DHT22;10517;50.742;4.224;2023-07-30T05:42:47;17.40;99.90
20712;DHT22;10517;50.742;4.224;2023-07-30T05:45:13;17.50;99.90
20712;DHT22;10517;50.742;4.224;2023-07-30T05:47:39;17.60;99.90
20712;DHT22;10517;50.742;4.224;2023-07-30T05:50:08;17.70;99.90
20712;DHT22;10517;50.742;4.224;2023-07-30T05:52:34;17.80;99.90
20712;DHT22;10517;50.742;4.224;2023-07-30T05:54:59;17.80;99.90
20712;DHT22;10517;50.742;4.224;2023-07-30T05:57:25;17.80;99.90
20712;DHT22;10517;50.742;4.224;2023-07-30T05:59:51;17.90;99.90
20712;DHT22;10517;50.742;4.224;2023-07-30T06:02:17;17.90;99.90
20712;DHT22;10517;50.742;4.224;2023-07-30T06:04:42;17.90;99.90
20712;DHT22;10517;50.742;4.224;2023-07-30T06:07:08;18.00;99.90
20712;DHT22;10517;50.742;4.224;2023-07-30T06:09:33;18.00;99.90
20712;DHT22;10517;50.742;4.224;2023-07-30T06:11:59;18.10;99.90
20712;DHT22;10517;50.742;4.224;2023-07-30T06:14:25;18.10;99.90
20712;DHT22;10517;50.742;4.224;2023-07-30T06:16:51;18.10;99.90
20712;DHT22;10517;50.742;4.224;2023-07-30T06:19:17;18.10;99.90
20712;DHT22;10517;50.742;4.224;2023-07-30T06:21:43;18.10;99.90
20712;DHT22;10517;50.742;4.224;2023-07-30T06:24:09;18.00;99.90
20712;DHT22;10517;50.742;4.224;2023-07-30T06:26:34;18.00;99.90
20712;DHT22;10517;50.742;4.224;2023-07-30T06:29:00;18.10;99.90
20712;DHT22;10517;50.742;4.224;2023-07-30T06:31:26;18.10;99.90
20712;DHT22;10517;50.742;4.224;2023-07-30T06:33:51;18.20;99.90
20712;DHT22;10517;50.742;4.224;2023-07-30T06:36:17;18.20;99.90
20712;DHT22;10517;50.742;4.224;2023-07-30T06:38:42;18.30;99.90
20712;DHT22;10517;50.742;4.224;2023-07-30T06:41:08;18.40;99.90
20712;DHT22;10517;50.742;4.224;2023-07-30T06:43:34;18.30;99.90
20712;DHT22;10517;50.742;4.224;2023-07-30T06:46:00;18.30;99.90
20712;DHT22;10517;50.742;4.224;2023-07-30T06:48:25;18.20;99.90
20712;DHT22;10517;50.742;4.224;2023-07-30T06:50:51;18.10;99.90
20712;DHT22;10517;50.742;4.224;2023-07-30T06:53:16;18.00;99.90
20712;DHT22;10517;50.742;4.224;2023-07-30T06:55:42;17.90;99.90
20712;DHT22;10517;50.742;4.224;2023-07-30T06:58:08;17.90;99.90
20712;DHT22;10517;50.742;4.224;2023-07-30T07:00:34;18.00;99.90
20712;DHT22;10517;50.742;4.224;2023-07-30T07:02:59;18.00;99.90
20712;DHT22;10517;50.742;4.224;2023-07-30T07:05:25;18.10;99.90
20712;DHT22;10517;50.742;4.224;2023-07-30T07:07:51;18.20;99.90
20712;DHT22;10517;50.742;4.224;2023-07-30T07:10:16;18.30;99.90
20712;DHT22;10517;50.742;4.224;2023-07-30T07:12:42;18.60;99.90
20712;DHT22;10517;50.742;4.224;2023-07-30T07:15:07;18.80;99.90
20712;DHT22;10517;50.742;4.224;2023-07-30T07:17:34;19.10;99.90
20712;DHT22;10517;50.742;4.224;2023-07-30T07:20:00;19.30;99.90
20712;DHT22;10517;50.742;4.224;2023-07-30T07:22:26;19.50;99.90
20712;DHT22;10517;50.742;4.224;2023-07-30T07:24:52;19.70;99.90
20712;DHT22;10517;50.742;4.224;2023-07-30T07:27:18;19.90;99.90
20712;DHT22;10517;50.742;4.224;2023-07-30T07:29:44;20.00;99.90
20712;DHT22;10517;50.742;4.224;2023-07-30T07:32:09;19.70;99.90
20712;DHT22;10517;50.742;4.224;2023-07-30T07:34:35;19.70;99.90
20712;DHT22;10517;50.742;4.224;2023-07-30T07:37:02;19.90;99.90
20712;DHT22;10517;50.742;4.224;2023-07-30T07:39:28;20.10;99.90
20712;DHT22;10517;50.742;4.224;2023-07-30T07:41:54;20.20;99.90
20712;DHT22;10517;50.742;4.224;2023-07-30T07:44:19;20.40;99.90
20712;DHT22;10517;50.742;4.224;2023-07-30T07:46:45;20.70;99.90
20712;DHT22;10517;50.742;4.224;2023-07-30T07:49:10;20.70;99.90
20712;DHT22;10517;50.742;4.224;2023-07-30T07:51:36;20.80;99.90
20712;DHT22;10517;50.742;4.224;2023-07-30T07:54:01;20.70;99.90
20712;DHT22;10517;50.742;4.224;2023-07-30T07:56:27;20.80;99.90
20712;DHT22;10517;50.742;4.224;2023-07-30T07:58:53;20.80;99.90
20712;DHT22;10517;50.742;4.224;2023-07-30T08:01:18;20.90;99.90
20712;DHT22;10517;50.742;4.224;2023-07-30T08:03:44;21.00;99.90
20712;DHT22;10517;50.742;4.224;2023-07-30T08:06:09;21.10;99.90
20712;DHT22;10517;50.742;4.224;2023-07-30T08:08:35;21.20;99.90
20712;DHT22;10517;50.742;4.224;2023-07-30T08:11:10;21.40;99.90
20712;DHT22;10517;50.742;4.224;2023-07-30T08:13:36;21.50;99.90
20712;DHT22;10517;50.742;4.224;2023-07-30T08:16:01;21.60;99.90
20712;DHT22;10517;50.742;4.224;2023-07-30T08:18:27;21.40;99.90
20712;DHT22;10517;50.742;4.224;2023-07-30T08:20:53;21.10;99.90
20712;DHT22;10517;50.742;4.224;2023-07-30T08:23:19;20.90;99.90
20712;DHT22;10517;50.742;4.224;2023-07-30T08:25:45;21.00;99.90
20712;DHT22;10517;50.742;4.224;2023-07-30T08:28:11;21.30;99.90
20712;DHT22;10517;50.742;4.224;2023-07-30T08:30:36;21.70;99.90
20712;DHT22;10517;50.742;4.224;2023-07-30T08:33:02;21.90;99.90
20712;DHT22;10517;50.742;4.224;2023-07-30T08:35:28;21.90;99.90
20712;DHT22;10517;50.742;4.224;2023-07-30T08:37:54;21.80;99.90
20712;DHT22;10517;50.742;4.224;2023-07-30T08:40:22;21.80;99.90
20712;DHT22;10517;50.742;4.224;2023-07-30T08:42:51;21.80;99.90
20712;DHT22;10517;50.742;4.224;2023-07-30T08:45:17;21.90;99.90
20712;DHT22;10517;50.742;4.224;2023-07-30T08:47:44;22.20;99.90
20712;DHT22;10517;50.742;4.224;2023-07-30T08:50:10;22.30;99.90
20712;DHT22;10517;50.742;4.224;2023-07-30T08:52:36;22.20;99.90
20712;DHT22;10517;50.742;4.224;2023-07-30T08:55:03;22.10;99.90
20712;DHT22;10517;50.742;4.224;2023-07-30T08:57:29;21.30;99.90
20712;DHT22;10517;50.742;4.224;2023-07-30T09:00:02;20.90;99.90
20712;DHT22;10517;50.742;4.224;2023-07-30T09:02:37;20.80;99.90
20712;DHT22;10517;50.742;4.224;2023-07-30T09:05:05;20.60;99.90
20712;DHT22;10517;50.742;4.224;2023-07-30T09:07:31;20.70;99.90
20712;DHT22;10517;50.742;4.224;2023-07-30T09:09:57;20.70;99.90
20712;DHT22;10517;50.742;4.224;2023-07-30T09:12:30;20.90;99.90
20712;DHT22;10517;50.742;4.224;2023-07-30T09:14:56;21.20;99.90
20712;DHT22;10517;50.742;4.224;2023-07-30T09:17:22;21.30;99.90
20712;DHT22;10517;50.742;4.224;2023-07-30T09:19:48;21.50;99.90
20712;DHT22;10517;50.742;4.224;2023-07-30T09:24:53;21.50;99.90
20712;DHT22;10517;50.742;4.224;2023-07-30T09:27:24;22.00;99.90
20712;DHT22;10517;50.742;4.224;2023-07-30T09:29:55;22.20;99.90
20712;DHT22;10517;50.742;4.224;2023-07-30T09:32:29;22.60;99.90
20712;DHT22;10517;50.742;4.224;2023-07-30T09:34:55;22.60;99.90
20712;DHT22;10517;50.742;4.224;2023-07-30T09:37:21;22.70;99.90
20712;DHT22;10517;50.742;4.224;2023-07-30T09:39:49;22.70;99.90
20712;DHT22;10517;50.742;4.224;2023-07-30T09:42:15;22.70;99.90
20712;DHT22;10517;50.742;4.224;2023-07-30T09:44:41;22.60;99.90
20712;DHT22;10517;50.742;4.224;2023-07-30T09:47:11;22.60;99.90
20712;DHT22;10517;50.742;4.224;2023-07-30T09:49:38;22.50;99.90
20712;DHT22;10517;50.742;4.224;2023-07-30T09:52:04;22.70;99.90
20712;DHT22;10517;50.742;4.224;2023-07-30T09:54:31;23.00;99.90
20712;DHT22;10517;50.742;4.224;2023-07-30T09:56:58;22.70;99.90
20712;DHT22;10517;50.742;4.224;2023-07-30T09:59:23;22.60;99.90
20712;DHT22;10517;50.742;4.224;2023-07-30T10:01:50;22.60;99.90
20712;DHT22;10517;50.742;4.224;2023-07-30T10:04:20;22.40;99.90
20712;DHT22;10517;50.742;4.224;2023-07-30T10:07:07;22.70;99.90
20712;DHT22;10517;50.742;4.224;2023-07-30T10:09:39;22.40;99.90
20712;DHT22;10517;50.742;4.224;2023-07-30T10:12:12;22.20;99.90
20712;DHT22;10517;50.742;4.224;2023-07-30T10:14:39;21.90;99.90
20712;DHT22;10517;50.742;4.224;2023-07-30T10:17:05;21.60;99.90
20712;DHT22;10517;50.742;4.224;2023-07-30T10:19:30;21.60;99.90
20712;DHT22;10517;50.742;4.224;2023-07-30T10:22:22;21.60;99.90
20712;DHT22;10517;50.742;4.224;2023-07-30T10:25:09;21.50;99.90
20712;DHT22;10517;50.742;4.224;2023-07-30T10:27:39;21.70;99.90
20712;DHT22;10517;50.742;4.224;2023-07-30T10:30:16;22.00;99.90
20712;DHT22;10517;50.742;4.224;2023-07-30T10:35:35;22.20;99.90
20712;DHT22;10517;50.742;4.224;2023-07-30T10:38:22;22.20;99.90
20712;DHT22;10517;50.742;4.224;2023-07-30T10:41:10;22.40;99.90
20712;DHT22;10517;50.742;4.224;2023-07-30T10:43:51;22.40;99.90
20712;DHT22;10517;50.742;4.224;2023-07-30T10:46:19;22.60;99.90
20712;DHT22;10517;50.742;4.224;2023-07-30T10:48:47;22.80;99.90
20712;DHT22;10517;50.742;4.224;2023-07-30T10:51:17;23.00;99.90
20712;DHT22;10517;50.742;4.224;2023-07-30T10:53:47;23.30;99.90
20712;DHT22;10517;50.742;4.224;2023-07-30T10:56:15;23.10;99.90
20712;DHT22;10517;50.742;4.224;2023-07-30T10:58:42;23.20;99.90
20712;DHT22;10517;50.742;4.224;2023-07-30T11:01:09;23.50;99.90
20712;DHT22;10517;50.742;4.224;2023-07-30T11:03:35;23.70;99.90
20712;DHT22;10517;50.742;4.224;2023-07-30T11:06:02;23.90;99.90
20712;DHT22;10517;50.742;4.224;2023-07-30T11:08:37;24.40;99.90
20712;DHT22;10517;50.742;4.224;2023-07-30T11:11:05;24.60;99.90
20712;DHT22;10517;50.742;4.224;2023-07-30T11:13:45;24.80;99.90
20712;DHT22;10517;50.742;4.224;2023-07-30T11:16:12;25.00;99.90
20712;DHT22;10517;50.742;4.224;2023-07-30T11:18:38;25.20;99.90
20712;DHT22;10517;50.742;4.224;2023-07-30T11:21:11;25.60;99.90
20712;DHT22;10517;50.742;4.224;2023-07-30T11:23:40;25.90;99.90
20712;DHT22;10517;50.742;4.224;2023-07-30T11:26:08;25.70;99.90
20712;DHT22;10517;50.742;4.224;2023-07-30T11:28:35;25.40;99.90
20712;DHT22;10517;50.742;4.224;2023-07-30T11:31:36;25.10;99.90
20712;DHT22;10517;50.742;4.224;2023-07-30T11:33:55;24.80;99.90
20712;DHT22;10517;50.742;4.224;2023-07-30T11:36:25;24.80;99.90
20712;DHT22;10517;50.742;4.224;2023-07-30T11:38:51;24.80;99.90
20712;DHT22;10517;50.742;4.224;2023-07-30T11:41:20;24.80;99.90
20712;DHT22;10517;50.742;4.224;2023-07-30T11:43:48;24.50;99.90
20712;DHT22;10517;50.742;4.224;2023-07-30T11:46:17;24.10;99.90
20712;DHT22;10517;50.742;4.224;2023-07-30T11:48:52;24.50;99.90
20712;DHT22;10517;50.742;4.224;2023-07-30T11:51:25;24.80;99.90
20712;DHT22;10517;50.742;4.224;2023-07-30T11:53:53;24.40;99.90
20712;DHT22;10517;50.742;4.224;2023-07-30T11:56:27;24.40;99.90
20712;DHT22;10517;50.742;4.224;2023-07-30T12:01:30;24.40;99.90
20712;DHT22;10517;50.742;4.224;2023-07-30T12:03:57;24.40;99.90
20712;DHT22;10517;50.742;4.224;2023-07-30T12:06:24;24.10;99.90
20712;DHT22;10517;50.742;4.224;2023-07-30T12:08:50;23.80;99.90
20712;DHT22;10517;50.742;4.224;2023-07-30T12:11:18;24.10;99.90
20712;DHT22;10517;50.742;4.224;2023-07-30T12:13:46;24.60;99.90
20712;DHT22;10517;50.742;4.224;2023-07-30T12:16:13;25.30;99.90
20712;DHT22;10517;50.742;4.224;2023-07-30T12:18:39;25.90;99.90
20712;DHT22;10517;50.742;4.224;2023-07-30T12:21:06;26.30;99.90
20712;DHT22;10517;50.742;4.224;2023-07-30T12:23:33;26.70;99.90
20712;DHT22;10517;50.742;4.224;2023-07-30T12:25:59;27.10;99.90
20712;DHT22;10517;50.742;4.224;2023-07-30T12:28:25;27.10;99.90
20712;DHT22;10517;50.742;4.224;2023-07-30T12:30:51;26.90;99.90
20712;DHT22;10517;50.742;4.224;2023-07-30T12:33:16;26.30;99.90
20712;DHT22;10517;50.742;4.224;2023-07-30T12:35:42;26.30;99.90
20712;DHT22;10517;50.742;4.224;2023-07-30T12:38:08;26.10;99.90
20712;DHT22;10517;50.742;4.224;2023-07-30T12:40:33;26.00;99.90
20712;DHT22;10517;50.742;4.224;2023-07-30T12:43:01;25.50;99.90
20712;DHT22;10517;50.742;4.224;2023-07-30T12:45:28;25.60;99.90
20712;DHT22;10517;50.742;4.224;2023-07-30T12:47:53;25.90;99.90
20712;DHT22;10517;50.742;4.224;2023-07-30T12:50:19;26.10;99.90
20712;DHT22;10517;50.742;4.224;2023-07-30T12:52:44;26.70;99.90
20712;DHT22;10517;50.742;4.224;2023-07-30T12:55:10;27.20;99.90
20712;DHT22;10517;50.742;4.224;2023-07-30T12:57:35;27.50;99.90
20712;DHT22;10517;50.742;4.224;2023-07-30T13:00:02;27.80;99.90
20712;DHT22;10517;50.742;4.224;2023-07-30T13:02:30;27.70;99.90
20712;DHT22;10517;50.742;4.224;2023-07-30T13:04:58;28.00;99.90
20712;DHT22;10517;50.742;4.224;2023-07-30T13:07:24;28.40;99.90
20712;DHT22;10517;50.742;4.224;2023-07-30T13:10:02;28.60;99.90
20712;DHT22;10517;50.742;4.224;2023-07-30T13:12:28;28.40;99.90
20712;DHT22;10517;50.742;4.224;2023-07-30T13:14:53;29.00;99.90
20712;DHT22;10517;50.742;4.224;2023-07-30T13:17:19;28.20;99.90
20712;DHT22;10517;50.742;4.224;2023-07-30T13:19:44;27.20;99.90
20712;DHT22;10517;50.742;4.224;2023-07-30T13:22:10;27.50;99.90
20712;DHT22;10517;50.742;4.224;2023-07-30T13:24:35;28.30;99.90
20712;DHT22;10517;50.742;4.224;2023-07-30T13:27:01;29.30;99.90
20712;DHT22;10517;50.742;4.224;2023-07-30T13:29:27;29.00;99.90
20712;DHT22;10517;50.742;4.224;2023-07-30T13:31:53;29.50;99.90
20712;DHT22;10517;50.742;4.224;2023-07-30T13:34:18;30.20;99.90
20712;DHT22;10517;50.742;4.224;2023-07-30T13:36:44;30.50;99.90
20712;DHT22;10517;50.742;4.224;2023-07-30T13:39:09;29.50;99.90
20712;DHT22;10517;50.742;4.224;2023-07-30T13:41:35;28.30;99.90
20712;DHT22;10517;50.742;4.224;2023-07-30T13:44:00;28.20;99.90
20712;DHT22;10517;50.742;4.224;2023-07-30T13:46:26;28.70;99.90
20712;DHT22;10517;50.742;4.224;2023-07-30T13:48:51;28.30;99.90
20712;DHT22;10517;50.742;4.224;2023-07-30T13:51:17;27.30;99.90
20712;DHT22;10517;50.742;4.224;2023-07-30T13:53:42;26.70;99.90
20712;DHT22;10517;50.742;4.224;2023-07-30T13:56:08;26.20;99.90
20712;DHT22;10517;50.742;4.224;2023-07-30T13:58:34;26.10;99.90
20712;DHT22;10517;50.742;4.224;2023-07-30T14:00:59;26.10;99.90
20712;DHT22;10517;50.742;4.224;2023-07-30T14:03:25;25.80;99.90
20712;DHT22;10517;50.742;4.224;2023-07-30T14:05:50;25.40;99.90
20712;DHT22;10517;50.742;4.224;2023-07-30T14:08:16;25.50;99.90
20712;DHT22;10517;50.742;4.224;2023-07-30T14:10:41;25.50;99.90
20712;DHT22;10517;50.742;4.224;2023-07-30T14:13:07;25.30;99.90
20712;DHT22;10517;50.742;4.224;2023-07-30T14:15:33;25.20;99.90
20712;DHT22;10517;50.742;4.224;2023-07-30T14:17:58;25.00;99.90
20712;DHT22;10517;50.742;4.224;2023-07-30T14:20:24;24.90;99.90
20712;DHT22;10517;50.742;4.224;2023-07-30T14:22:49;25.00;99.90
20712;DHT22;10517;50.742;4.224;2023-07-30T14:25:17;25.30;99.90
20712;DHT22;10517;50.742;4.224;2023-07-30T14:27:42;25.30;99.90
20712;DHT22;10517;50.742;4.224;2023-07-30T14:30:08;25.10;99.90
20712;DHT22;10517;50.742;4.224;2023-07-30T14:32:34;24.70;99.90
20712;DHT22;10517;50.742;4.224;2023-07-30T14:34:59;24.30;99.90
20712;DHT22;10517;50.742;4.224;2023-07-30T14:37:25;24.20;99.90
20712;DHT22;10517;50.742;4.224;2023-07-30T14:39:50;24.20;99.90
20712;DHT22;10517;50.742;4.224;2023-07-30T14:42:16;24.10;99.90
20712;DHT22;10517;50.742;4.224;2023-07-30T14:44:41;23.80;99.90
20712;DHT22;10517;50.742;4.224;2023-07-30T14:47:07;23.60;99.90
20712;DHT22;10517;50.742;4.224;2023-07-30T14:49:33;23.50;99.90
20712;DHT22;10517;50.742;4.224;2023-07-30T14:51:59;23.00;99.90
20712;DHT22;10517;50.742;4.224;2023-07-30T14:54:25;22.80;99.90
20712;DHT22;10517;50.742;4.224;2023-07-30T14:56:50;22.90;99.90
20712;DHT22;10517;50.742;4.224;2023-07-30T14:59:16;23.00;99.90
20712;DHT22;10517;50.742;4.224;2023-07-30T15:01:41;23.10;99.90
20712;DHT22;10517;50.742;4.224;2023-07-30T15:04:07;23.20;99.90
20712;DHT22;10517;50.742;4.224;2023-07-30T15:06:33;23.40;99.90
20712;DHT22;10517;50.742;4.224;2023-07-30T15:08:59;23.40;99.90
20712;DHT22;10517;50.742;4.224;2023-07-30T15:11:24;23.30;99.90
20712;DHT22;10517;50.742;4.224;2023-07-30T15:13:50;23.40;99.90
20712;DHT22;10517;50.742;4.224;2023-07-30T15:16:16;23.20;99.90
20712;DHT22;10517;50.742;4.224;2023-07-30T15:18:42;23.00;99.90
20712;DHT22;10517;50.742;4.224;2023-07-30T15:21:11;22.60;99.90
20712;DHT22;10517;50.742;4.224;2023-07-30T15:23:37;22.40;99.90
20712;DHT22;10517;50.742;4.224;2023-07-30T15:26:03;22.40;99.90
20712;DHT22;10517;50.742;4.224;2023-07-30T15:28:28;22.60;99.90
20712;DHT22;10517;50.742;4.224;2023-07-30T15:30:54;22.50;99.90
20712;DHT22;10517;50.742;4.224;2023-07-30T15:33:20;22.70;99.90
20712;DHT22;10517;50.742;4.224;2023-07-30T15:35:45;22.80;99.90